createdAt,value
2022-12-13T00:02:18.913Z,87.30
2022-12-13T00:04:49.741Z,87.20
2022-12-13T00:07:20.430Z,87.50
2022-12-13T00:09:51.110Z,87.60
2022-12-13T00:12:21.779Z,87.50
2022-12-13T00:14:52.467Z,87.20
2022-12-13T00:17:23.760Z,87.40
2022-12-13T00:19:54.589Z,87.10
2022-12-13T00:22:25.362Z,86.70
2022-12-13T00:24:57.947Z,86.40
2022-12-13T00:27:28.650Z,85.80
2022-12-13T00:30:00.227Z,85.70
2022-12-13T00:32:36.371Z,85.30
2022-12-13T00:35:08.257Z,85.00
2022-12-13T00:37:38.928Z,85.20
2022-12-13T00:40:10.875Z,84.70
2022-12-13T00:42:41.846Z,84.20
2022-12-13T00:45:13.419Z,84.00
2022-12-13T00:47:44.498Z,83.90
2022-12-13T00:50:16.815Z,83.90
2022-12-13T00:52:47.533Z,83.80
2022-12-13T00:55:18.241Z,83.20
2022-12-13T00:57:49.631Z,82.40
2022-12-13T01:00:20.767Z,82.10
2022-12-13T01:02:51.456Z,82.10
2022-12-13T01:05:47.258Z,82.20
2022-12-13T01:07:54.650Z,82.30
2022-12-13T01:10:25.345Z,82.30
2022-12-13T01:12:56.344Z,82.20
2022-12-13T01:15:27.041Z,81.80
2022-12-13T01:17:57.906Z,81.70
2022-12-13T01:20:28.633Z,81.50
2022-12-13T01:22:59.272Z,80.80
2022-12-13T01:25:30.061Z,80.80
2022-12-13T01:28:01.020Z,80.60
2022-12-13T01:30:31.919Z,80.80
2022-12-13T01:33:02.603Z,80.10
2022-12-13T01:35:37.817Z,79.90
2022-12-13T01:38:15.770Z,79.40
2022-12-13T01:40:52.356Z,78.90
2022-12-13T01:43:24.515Z,78.50
2022-12-13T01:45:55.367Z,78.20
2022-12-13T01:48:28.588Z,77.20
2022-12-13T01:51:06.988Z,76.20
2022-12-13T01:53:43.888Z,76.00
2022-12-13T01:56:14.719Z,76.00
2022-12-13T01:58:50.400Z,76.90
2022-12-13T02:01:22.391Z,75.50
2022-12-13T02:04:01.366Z,75.60
2022-12-13T02:06:40.269Z,75.80
2022-12-13T02:09:12.516Z,75.10
2022-12-13T02:11:48.574Z,75.30
2022-12-13T02:14:20.328Z,74.60
2022-12-13T02:17:13.015Z,74.60
2022-12-13T02:20:05.013Z,75.00
2022-12-13T02:23:11.490Z,74.50
2022-12-13T02:25:53.932Z,74.30
2022-12-13T02:28:32.664Z,74.90
2022-12-13T02:31:21.557Z,73.90
2022-12-13T02:34:01.590Z,73.70
2022-12-13T02:37:17.823Z,73.70
2022-12-13T02:39:43.006Z,73.50
2022-12-13T02:42:21.864Z,72.80
2022-12-13T02:44:54.353Z,72.10
2022-12-13T02:47:31.631Z,71.70
2022-12-13T02:50:05.026Z,72.50
2022-12-13T02:52:36.905Z,72.10
2022-12-13T02:55:12.959Z,71.80
2022-12-13T02:57:46.753Z,71.60
2022-12-13T03:00:29.686Z,71.70
2022-12-13T03:03:06.119Z,71.60
2022-12-13T03:06:00.757Z,70.90
2022-12-13T03:08:39.545Z,70.10
2022-12-13T03:11:15.379Z,68.30
2022-12-13T03:14:07.348Z,68.80
2022-12-13T03:16:41.478Z,68.00
2022-12-13T03:19:14.570Z,67.50
2022-12-13T03:22:01.371Z,67.30
2022-12-13T03:24:32.323Z,66.90
2022-12-13T03:27:10.473Z,66.80
2022-12-13T03:29:41.376Z,67.40
2022-12-13T03:32:12.132Z,66.50
2022-12-13T03:34:44.039Z,66.20
2022-12-13T03:37:15.344Z,66.20
2022-12-13T03:39:46.628Z,66.70
2022-12-13T03:42:18.779Z,65.30
2022-12-13T03:44:49.457Z,65.20
2022-12-13T03:47:20.182Z,65.30
2022-12-13T03:49:54.059Z,64.90
2022-12-13T03:52:23.901Z,65.30
2022-12-13T03:54:54.585Z,64.80
2022-12-13T03:57:25.616Z,64.80
2022-12-13T03:59:56.288Z,64.20
2022-12-13T04:02:30.970Z,63.80
2022-12-13T04:05:00.930Z,64.30
2022-12-13T04:07:34.657Z,63.20
2022-12-13T04:10:25.502Z,62.80
2022-12-13T04:12:56.420Z,62.90
2022-12-13T04:15:28.514Z,62.50
2022-12-13T04:17:59.298Z,62.20
2022-12-13T04:20:30.486Z,61.30
2022-12-13T04:23:01.669Z,60.20
2022-12-13T04:25:33.819Z,61.20
2022-12-13T04:28:06.671Z,60.40
2022-12-13T04:30:37.898Z,60.10
2022-12-13T04:33:08.777Z,59.80
2022-12-13T04:35:39.459Z,59.70
2022-12-13T04:38:10.492Z,59.20
2022-12-13T04:40:41.659Z,59.30
2022-12-13T04:43:12.766Z,59.10
2022-12-13T04:45:43.781Z,59.00
2022-12-13T04:48:30.319Z,59.00
2022-12-13T04:50:47.070Z,59.40
2022-12-13T04:53:23.857Z,59.60
2022-12-13T04:55:55.588Z,58.90
2022-12-13T04:58:28.799Z,59.10
2022-12-13T05:00:59.660Z,58.60
2022-12-13T05:03:31.637Z,58.10
2022-12-13T05:06:02.404Z,57.70
2022-12-13T05:08:35.609Z,56.90
2022-12-13T05:11:07.592Z,57.30
2022-12-13T05:13:38.573Z,56.70
2022-12-13T05:16:10.653Z,57.00
2022-12-13T05:18:41.638Z,57.70
2022-12-13T05:21:15.018Z,57.00
2022-12-13T05:23:46.931Z,56.90
2022-12-13T05:26:17.912Z,56.40
2022-12-13T05:28:50.084Z,56.30
2022-12-13T05:31:23.459Z,56.90
2022-12-13T05:33:52.941Z,56.80
2022-12-13T05:36:28.921Z,55.80
2022-12-13T05:38:58.954Z,56.10
2022-12-13T05:41:32.327Z,55.90
2022-12-13T05:44:03.595Z,56.20
2022-12-13T05:46:41.300Z,55.00
2022-12-13T05:49:07.120Z,55.20
2022-12-13T05:51:37.923Z,56.10
2022-12-13T05:54:09.473Z,55.90
2022-12-13T05:56:40.306Z,56.40
2022-12-13T05:59:11.086Z,55.70
2022-12-13T06:01:44.026Z,56.30
2022-12-13T06:04:22.364Z,55.40
2022-12-13T06:06:47.510Z,55.40
2022-12-13T06:09:19.773Z,55.90
2022-12-13T06:12:00.988Z,55.80
2022-12-13T06:14:24.460Z,55.60
2022-12-13T06:17:01.296Z,55.70
2022-12-13T06:19:31.973Z,55.20
2022-12-13T06:22:04.027Z,55.50
2022-12-13T06:24:35.149Z,55.90
2022-12-13T06:27:09.717Z,55.60
2022-12-13T06:29:44.454Z,55.70
2022-12-13T06:32:15.425Z,55.90
2022-12-13T06:34:49.666Z,56.50
2022-12-13T06:37:20.486Z,54.90
2022-12-13T06:39:51.219Z,54.80
2022-12-13T06:42:22.620Z,55.20
2022-12-13T06:44:56.160Z,55.30
2022-12-13T06:47:31.045Z,55.20
2022-12-13T06:50:05.660Z,56.00
2022-12-13T06:52:36.004Z,55.50
2022-12-13T06:55:07.391Z,55.00
2022-12-13T06:57:38.096Z,55.30
2022-12-13T07:00:11.540Z,54.20
2022-12-13T07:02:42.298Z,55.30
2022-12-13T07:05:13.415Z,55.10
2022-12-13T07:07:44.080Z,54.00
2022-12-13T07:10:22.683Z,54.80
2022-12-13T07:12:48.414Z,55.50
2022-12-13T07:15:22.963Z,55.00
2022-12-13T07:17:54.161Z,55.00
2022-12-13T07:20:24.950Z,55.30
2022-12-13T07:22:59.767Z,54.90
2022-12-13T07:25:32.674Z,55.20
2022-12-13T07:28:08.932Z,55.30
2022-12-13T07:30:41.977Z,55.60
2022-12-13T07:33:12.950Z,56.30
2022-12-13T07:35:46.122Z,55.30
2022-12-13T07:38:19.982Z,55.70
2022-12-13T07:40:54.367Z,54.80
2022-12-13T07:43:30.947Z,54.70
2022-12-13T07:46:03.130Z,54.40
2022-12-13T07:48:34.635Z,55.40
2022-12-13T07:51:08.366Z,54.10
2022-12-13T07:53:39.993Z,54.30
2022-12-13T07:56:17.511Z,54.50
2022-12-13T07:58:49.633Z,55.20
2022-12-13T08:01:26.961Z,54.90
2022-12-13T08:03:57.976Z,54.60
2022-12-13T08:06:33.108Z,54.50
2022-12-13T08:09:05.236Z,54.20
2022-12-13T08:11:39.898Z,54.30
2022-12-13T08:14:14.993Z,54.10
2022-12-13T08:16:47.137Z,54.30
2022-12-13T08:19:21.116Z,53.80
2022-12-13T08:21:58.247Z,54.10
2022-12-13T08:24:31.389Z,54.70
2022-12-13T08:27:07.116Z,54.50
2022-12-13T08:29:38.210Z,54.90
2022-12-13T08:32:12.603Z,55.10
2022-12-13T08:34:46.131Z,55.00
2022-12-13T08:37:16.841Z,54.50
2022-12-13T08:39:47.971Z,54.40
2022-12-13T08:42:20.576Z,54.20
2022-12-13T08:44:55.898Z,54.40
2022-12-13T08:47:30.904Z,54.50
2022-12-13T08:50:04.818Z,54.60
2022-12-13T08:52:40.748Z,54.30
2022-12-13T08:55:09.349Z,54.30
2022-12-13T08:57:41.216Z,54.80
2022-12-13T09:00:15.221Z,54.80
2022-12-13T09:02:48.303Z,54.60
2022-12-13T09:05:33.418Z,55.10
2022-12-13T09:07:55.015Z,54.80
2022-12-13T09:10:44.944Z,54.90
2022-12-13T09:13:31.981Z,55.00
2022-12-13T09:15:52.917Z,55.10
2022-12-13T09:18:36.568Z,55.00
2022-12-13T09:21:14.345Z,56.10
2022-12-13T09:23:49.633Z,54.80
2022-12-13T09:26:25.126Z,55.30
2022-12-13T09:28:53.070Z,55.50
2022-12-13T09:31:27.194Z,55.40
2022-12-13T09:34:01.047Z,55.60
2022-12-13T09:36:31.698Z,55.80
2022-12-13T09:39:02.620Z,55.90
2022-12-13T09:41:44.303Z,55.80
2022-12-13T09:44:49.655Z,56.00
2022-12-13T09:47:46.841Z,56.10
2022-12-13T09:50:38.550Z,56.20
2022-12-13T09:53:05.994Z,56.20
2022-12-13T09:55:42.428Z,56.10
2022-12-13T09:58:17.176Z,55.90
2022-12-13T10:00:52.269Z,56.00
2022-12-13T10:03:24.283Z,55.80
2022-12-13T10:06:04.778Z,55.70
2022-12-13T10:08:40.835Z,56.30
2022-12-13T10:11:19.932Z,55.90
2022-12-13T10:14:05.311Z,56.30
2022-12-13T10:16:42.066Z,56.40
2022-12-13T10:19:29.251Z,56.60
2022-12-13T10:21:46.905Z,57.60
2022-12-13T10:24:32.899Z,56.90
2022-12-13T10:26:52.536Z,57.30
2022-12-13T10:29:23.403Z,56.90
2022-12-13T10:31:57.241Z,56.60
2022-12-13T10:34:35.856Z,57.00
2022-12-13T10:37:34.820Z,56.90
2022-12-13T10:40:08.502Z,57.20
2022-12-13T10:42:39.174Z,57.50
2022-12-13T10:45:12.565Z,57.60
2022-12-13T10:47:46.962Z,57.90
2022-12-13T10:50:30.172Z,57.90
2022-12-13T10:53:02.979Z,58.10
2022-12-13T10:55:36.921Z,58.30
2022-12-13T10:58:13.333Z,58.40
2022-12-13T11:00:51.032Z,58.40
2022-12-13T11:03:35.717Z,58.70
2022-12-13T11:06:19.121Z,58.90
2022-12-13T11:08:49.765Z,59.00
2022-12-13T11:11:23.775Z,59.20
2022-12-13T11:14:03.849Z,59.40
2022-12-13T11:16:38.712Z,59.60
2022-12-13T11:19:12.377Z,59.80
2022-12-13T11:21:46.515Z,60.00
2022-12-13T11:24:23.312Z,60.00
2022-12-13T11:27:16.352Z,60.10
2022-12-13T11:29:57.688Z,60.30
2022-12-13T11:33:00.439Z,60.50
2022-12-13T11:36:05.303Z,60.70
2022-12-13T11:38:58.234Z,60.90
2022-12-13T11:41:36.587Z,61.00
2022-12-13T11:44:18.321Z,61.30
2022-12-13T11:46:51.528Z,61.60
2022-12-13T11:49:29.388Z,61.70
2022-12-13T11:52:22.229Z,62.00
2022-12-13T11:55:04.021Z,62.30
2022-12-13T11:58:11.808Z,62.60
2022-12-13T12:00:45.215Z,62.80
2022-12-13T12:03:23.214Z,63.10
2022-12-13T12:06:05.077Z,63.30
2022-12-13T12:08:40.780Z,63.50
2022-12-13T12:11:30.203Z,64.10
2022-12-13T12:14:10.502Z,64.20
2022-12-13T12:16:55.699Z,64.40
2022-12-13T12:19:30.589Z,64.90
2022-12-13T12:22:14.704Z,64.90
2022-12-13T12:25:09.969Z,65.20
2022-12-13T12:28:15.805Z,65.50
2022-12-13T12:30:57.572Z,65.80
2022-12-13T12:33:53.158Z,66.30
2022-12-13T12:36:56.209Z,66.70
2022-12-13T12:39:34.386Z,67.00
2022-12-13T12:42:25.440Z,67.20
2022-12-13T12:45:54.704Z,67.40
2022-12-13T12:50:55.740Z,68.00
2022-12-13T12:53:46.610Z,67.70
2022-12-13T12:56:37.106Z,68.00
2022-12-13T12:59:18.781Z,68.40
2022-12-13T13:02:03.787Z,68.60
2022-12-13T13:04:44.334Z,68.80
2022-12-13T13:07:23.508Z,68.80
2022-12-13T13:09:55.041Z,68.80
2022-12-13T13:12:30.836Z,69.00
2022-12-13T13:15:02.861Z,69.20
2022-12-13T13:17:37.154Z,69.60
2022-12-13T13:20:25.215Z,69.90
2022-12-13T13:26:00.324Z,70.00
2022-12-13T13:28:11.380Z,70.30
2022-12-13T13:30:44.905Z,70.30
2022-12-13T13:33:18.773Z,70.30
2022-12-13T13:35:52.351Z,70.10
2022-12-13T13:38:31.445Z,70.50
2022-12-13T13:41:04.924Z,70.50
2022-12-13T13:43:35.606Z,71.40
2022-12-13T13:46:15.568Z,71.50
2022-12-13T13:49:01.174Z,72.00
2022-12-13T13:52:23.963Z,73.10
2022-12-13T13:54:34.385Z,73.20
2022-12-13T13:57:09.961Z,73.90
2022-12-13T14:00:17.383Z,73.90
2022-12-13T14:03:33.117Z,75.00
2022-12-13T14:06:23.040Z,74.90
2022-12-13T14:09:16.767Z,75.10
2022-12-13T14:12:23.947Z,75.00
2022-12-13T14:15:16.580Z,75.50
2022-12-13T14:17:52.684Z,75.40
2022-12-13T14:20:26.177Z,75.60
2022-12-13T14:23:06.845Z,75.50
2022-12-13T14:26:05.886Z,75.20
2022-12-13T14:28:50.413Z,75.00
2022-12-13T14:31:28.826Z,75.40
2022-12-13T14:34:03.385Z,74.80
2022-12-13T14:36:37.619Z,74.60
2022-12-13T14:39:32.003Z,74.50
2022-12-13T14:42:05.494Z,74.40
2022-12-13T14:44:36.773Z,74.40
2022-12-13T14:47:12.164Z,74.60
2022-12-13T14:49:50.412Z,74.50
2022-12-13T14:52:27.579Z,74.50
2022-12-13T14:55:00.937Z,74.90
2022-12-13T14:57:33.570Z,74.90
2022-12-13T15:00:10.071Z,74.80
2022-12-13T15:02:41.384Z,74.80
2022-12-13T15:05:16.974Z,74.50
2022-12-13T15:07:50.552Z,74.90
2022-12-13T15:10:48.382Z,75.00
2022-12-13T15:13:30.091Z,75.50
2022-12-13T15:16:02.093Z,75.40
2022-12-13T15:18:34.289Z,75.40
2022-12-13T15:21:25.957Z,75.60
2022-12-13T15:23:57.776Z,75.70
2022-12-13T15:26:30.165Z,75.50
2022-12-13T15:29:09.414Z,75.50
2022-12-13T15:31:48.693Z,75.50
2022-12-13T15:34:39.364Z,75.70
2022-12-13T15:40:20.147Z,75.50
2022-12-13T15:42:56.792Z,75.80
2022-12-13T15:45:36.622Z,75.80
2022-12-13T15:48:03.066Z,75.90
2022-12-13T15:50:43.813Z,75.80
2022-12-13T15:53:31.713Z,76.10
2022-12-13T15:56:09.700Z,76.00
2022-12-13T15:58:38.761Z,76.00
2022-12-13T16:01:10.961Z,76.50
2022-12-13T16:03:48.971Z,76.40
2022-12-13T16:06:24.518Z,76.60
2022-12-13T16:08:59.703Z,76.20
2022-12-13T16:11:35.435Z,76.50
2022-12-13T16:14:35.305Z,76.60
2022-12-13T16:17:33.745Z,76.60
2022-12-13T16:20:10.523Z,77.00
2022-12-13T16:22:40.213Z,76.90
2022-12-13T16:25:16.642Z,76.80
2022-12-13T16:27:50.148Z,77.10
2022-12-13T16:30:30.054Z,77.40
2022-12-13T16:33:18.544Z,77.50
2022-12-13T16:35:37.523Z,77.40
2022-12-13T16:38:10.292Z,77.40
2022-12-13T16:40:42.657Z,77.60
2022-12-13T16:43:31.126Z,77.50
2022-12-13T16:45:57.665Z,77.50
2022-12-13T16:48:29.298Z,77.40
2022-12-13T16:51:06.409Z,77.60
2022-12-13T16:53:39.350Z,77.60
2022-12-13T16:56:15.027Z,77.80
2022-12-13T16:58:50.090Z,77.90
2022-12-13T17:01:23.317Z,77.70
2022-12-13T17:03:54.494Z,77.70
2022-12-13T17:06:27.021Z,78.00
2022-12-13T17:08:57.806Z,77.90
2022-12-13T17:11:28.481Z,78.00
2022-12-13T17:14:00.299Z,78.00
2022-12-13T17:16:49.259Z,78.00
2022-12-13T17:19:20.596Z,78.10
2022-12-13T17:21:52.866Z,78.00
2022-12-13T17:24:23.728Z,78.20
2022-12-13T17:26:55.800Z,78.50
2022-12-13T17:29:27.536Z,78.60
2022-12-13T17:32:01.266Z,78.80
2022-12-13T17:34:32.548Z,78.90
2022-12-13T17:37:09.987Z,78.90
2022-12-13T17:39:36.744Z,79.00
2022-12-13T17:42:07.771Z,79.00
2022-12-13T17:44:38.695Z,79.20
2022-12-13T17:47:09.363Z,79.00
2022-12-13T17:49:40.109Z,78.90
2022-12-13T17:52:11.950Z,78.80
2022-12-13T17:54:44.379Z,78.80
2022-12-13T17:57:15.067Z,79.00
2022-12-13T17:59:45.785Z,78.80
2022-12-13T18:02:17.875Z,79.00
2022-12-13T18:04:48.592Z,78.90
2022-12-13T18:07:19.594Z,79.10
2022-12-13T18:09:50.499Z,78.90
2022-12-13T18:12:21.175Z,79.20
2022-12-13T18:14:52.048Z,79.10
2022-12-13T18:17:40.465Z,79.30
2022-12-13T18:19:55.221Z,79.30
2022-12-13T18:22:25.903Z,79.30
2022-12-13T18:24:56.537Z,79.40
2022-12-13T18:27:27.222Z,79.40
2022-12-13T18:29:57.986Z,79.30
2022-12-13T18:32:30.122Z,79.40
2022-12-13T18:35:03.979Z,79.30
2022-12-13T18:37:35.176Z,79.30
2022-12-13T18:40:07.528Z,79.30
2022-12-13T18:42:38.285Z,79.30
2022-12-13T18:45:11.148Z,79.10
2022-12-13T18:47:42.818Z,79.20
2022-12-13T18:50:13.957Z,79.10
2022-12-13T18:52:45.110Z,79.00
2022-12-13T18:55:16.289Z,78.90
2022-12-13T18:57:48.226Z,79.10
2022-12-13T19:00:21.549Z,79.10
2022-12-13T19:02:51.609Z,79.20
2022-12-13T19:05:25.044Z,79.20
2022-12-13T19:07:55.088Z,79.10
2022-12-13T19:10:25.991Z,79.20
2022-12-13T19:12:56.700Z,79.30
2022-12-13T19:15:28.628Z,79.40
2022-12-13T19:17:59.426Z,79.40
2022-12-13T19:20:30.203Z,79.70
2022-12-13T19:23:00.991Z,79.80
2022-12-13T19:25:31.657Z,79.80
2022-12-13T19:28:02.360Z,80.00
2022-12-13T19:30:33.833Z,79.90
2022-12-13T19:33:04.743Z,80.00
2022-12-13T19:35:35.540Z,80.10
2022-12-13T19:38:06.237Z,80.40
2022-12-13T19:40:40.152Z,80.20
2022-12-13T19:43:13.121Z,80.40
2022-12-13T19:45:46.735Z,80.60
2022-12-13T19:48:26.255Z,80.60
2022-12-13T19:51:02.446Z,80.50
2022-12-13T19:53:33.869Z,80.80
2022-12-13T19:56:11.759Z,80.70
2022-12-13T19:58:43.154Z,80.90
2022-12-13T20:01:14.717Z,80.80
2022-12-13T20:03:47.439Z,81.30
2022-12-13T20:06:20.975Z,81.50
2022-12-13T20:08:52.452Z,81.30
2022-12-13T20:11:24.500Z,81.50
2022-12-13T20:13:57.353Z,81.80
2022-12-13T20:16:29.390Z,81.60
2022-12-13T20:19:06.614Z,81.60
2022-12-13T20:21:37.298Z,81.60
2022-12-13T20:24:11.185Z,81.80
2022-12-13T20:26:41.946Z,81.90
2022-12-13T20:29:16.302Z,81.90
2022-12-13T20:31:48.735Z,81.90
2022-12-13T20:34:20.288Z,82.30
2022-12-13T20:36:51.358Z,82.30
2022-12-13T20:39:24.021Z,82.70
2022-12-13T20:41:54.934Z,82.70
2022-12-13T20:44:25.656Z,82.40
2022-12-13T20:46:56.571Z,82.70
2022-12-13T20:49:27.294Z,83.00
2022-12-13T20:51:57.967Z,83.30
2022-12-13T20:54:28.610Z,83.50
2022-12-13T20:56:59.641Z,83.40
2022-12-13T20:59:30.384Z,84.50
2022-12-13T21:02:01.163Z,83.70
2022-12-13T21:04:34.868Z,83.70
2022-12-13T21:07:06.669Z,83.90
2022-12-13T21:09:37.460Z,83.80
2022-12-13T21:12:08.510Z,83.70
2022-12-13T21:14:39.931Z,83.80
2022-12-13T21:17:12.224Z,83.80
2022-12-13T21:19:44.411Z,83.90
2022-12-13T21:22:16.567Z,83.80
2022-12-13T21:24:47.236Z,83.90
2022-12-13T21:27:18.725Z,83.70
2022-12-13T21:29:49.837Z,83.60
2022-12-13T21:32:30.912Z,83.40
2022-12-13T21:35:07.233Z,83.40
2022-12-13T21:37:37.911Z,83.30
2022-12-13T21:40:13.104Z,83.20
2022-12-13T21:42:46.401Z,83.10
2022-12-13T21:45:17.392Z,83.10
2022-12-13T21:47:48.066Z,83.20
2022-12-13T21:50:18.860Z,83.00
2022-12-13T21:52:49.881Z,82.90
2022-12-13T21:58:10.630Z,83.10
2022-12-13T22:00:41.486Z,83.40
2022-12-13T22:03:12.268Z,83.20
2022-12-13T22:05:43.070Z,83.80
2022-12-13T22:08:13.855Z,83.50
2022-12-13T22:11:03.935Z,83.30
2022-12-13T22:13:34.883Z,83.20
2022-12-13T22:16:06.253Z,83.20
2022-12-13T22:18:40.061Z,83.20
2022-12-13T22:21:16.320Z,83.40
2022-12-13T22:23:47.091Z,83.50
2022-12-13T22:26:17.888Z,83.40
2022-12-13T22:28:50.782Z,83.50
2022-12-13T22:31:26.700Z,83.40
2022-12-13T22:33:55.047Z,83.50
2022-12-13T22:36:25.857Z,83.80
2022-12-13T22:38:56.643Z,83.90
2022-12-13T22:41:27.350Z,83.80
2022-12-13T22:44:00.453Z,84.10
2022-12-13T22:46:31.315Z,84.20
2022-12-13T22:49:02.118Z,84.20
2022-12-13T22:51:33.620Z,84.40
2022-12-13T22:54:04.640Z,84.80
2022-12-13T22:56:35.346Z,85.10
2022-12-13T22:59:08.612Z,84.20
2022-12-13T23:01:41.381Z,84.20
2022-12-13T23:04:13.892Z,85.30
2022-12-13T23:06:45.759Z,86.70
2022-12-13T23:09:19.144Z,86.00
2022-12-13T23:12:07.549Z,86.40
2022-12-13T23:14:38.348Z,86.00
2022-12-13T23:17:09.400Z,86.90
2022-12-13T23:19:50.127Z,87.30
2022-12-13T23:22:14.326Z,85.50
2022-12-13T23:24:45.976Z,86.00
2022-12-13T23:27:16.962Z,85.90
2022-12-13T23:29:47.977Z,86.50
2022-12-13T23:32:19.407Z,86.30
2022-12-13T23:34:56.055Z,86.40
2022-12-13T23:37:27.072Z,86.30
2022-12-13T23:39:58.821Z,86.00
2022-12-13T23:42:33.633Z,86.10
2022-12-13T23:45:04.490Z,86.40
2022-12-13T23:47:36.343Z,86.60
2022-12-13T23:50:07.580Z,86.60
2022-12-13T23:52:38.892Z,86.40
2022-12-13T23:55:11.176Z,86.50
2022-12-13T23:57:46.094Z,86.40
